Terminal Aerodrome Forecast
Issued by NWS

Home | Current Version | Previous Version | Text Only | Print | Product List | Glossary On
Versions: 1 2 3 4 5 6 7 8 9 10 11 12 13 14 15
079
FTAK31 PAJN 072333
TAFASI
TAF
PASI 072333Z 0800/0824 12012G22KT P6SM VCSH SCT035 OVC100
      WS020/15035KT
     FM080100 11010G18KT P6SM OVC100
     FM080400 11009KT P6SM SKC=

USA.gov is the U.S. government's official web portal to all federal, state and local government web resources and services.